createdAt,value
2023-10-16T00:00:49.691Z,949.3
2023-10-16T00:01:51.715Z,949.3
2023-10-16T00:02:53.627Z,949.3
2023-10-16T00:03:56.048Z,949.3
2023-10-16T00:04:58.133Z,949.3
2023-10-16T00:05:59.866Z,949.3
2023-10-16T00:07:01.568Z,949.3
2023-10-16T00:08:03.289Z,949.3
2023-10-16T00:09:05.017Z,949.3
2023-10-16T00:10:06.692Z,949.4
2023-10-16T00:11:08.394Z,949.3
2023-10-16T00:12:10.205Z,949.3
2023-10-16T00:13:11.860Z,949.3
2023-10-16T00:14:13.575Z,949.3
2023-10-16T00:15:15.315Z,949.4
2023-10-16T00:16:17.256Z,949.3
2023-10-16T00:17:19.116Z,949.3
2023-10-16T00:18:20.974Z,949.4
2023-10-16T00:19:22.750Z,949.4
2023-10-16T00:20:24.447Z,949.4
2023-10-16T00:21:27.192Z,949.5
2023-10-16T00:22:29.079Z,949.4
2023-10-16T00:23:30.848Z,949.4
2023-10-16T00:24:33.020Z,949.5
2023-10-16T00:25:35.047Z,949.5
2023-10-16T00:26:36.768Z,949.4
2023-10-16T00:27:38.718Z,949.5
2023-10-16T00:28:40.512Z,949.5
2023-10-16T00:29:42.262Z,949.6
2023-10-16T00:30:44.172Z,949.6
2023-10-16T00:31:46.355Z,949.5
2023-10-16T00:32:48.219Z,949.6
2023-10-16T00:33:50.523Z,949.5
2023-10-16T00:34:52.523Z,949.5
2023-10-16T00:35:54.195Z,949.5
2023-10-16T00:36:56.681Z,949.5
2023-10-16T00:37:58.403Z,949.6
2023-10-16T00:39:00.189Z,949.6
2023-10-16T00:40:01.962Z,949.6
2023-10-16T00:41:03.714Z,949.7
2023-10-16T00:42:05.425Z,949.7
2023-10-16T00:43:07.185Z,949.7
2023-10-16T00:44:08.956Z,949.7
2023-10-16T00:45:10.638Z,949.7
2023-10-16T00:46:12.522Z,949.8
2023-10-16T00:47:14.344Z,949.8
2023-10-16T00:48:16.191Z,949.9
2023-10-16T00:49:18.109Z,949.8
2023-10-16T00:50:19.796Z,949.9
2023-10-16T00:51:41.879Z,949.9
2023-10-16T00:52:44.153Z,950
2023-10-16T00:53:45.921Z,949.8
2023-10-16T00:54:48.062Z,949.8
2023-10-16T00:55:49.889Z,949.9
2023-10-16T00:56:51.604Z,949.8
2023-10-16T00:57:53.365Z,949.8
2023-10-16T00:58:55.389Z,949.8
2023-10-16T00:59:57.257Z,949.8
2023-10-16T01:00:59.149Z,949.8
2023-10-16T01:02:00.952Z,949.9
2023-10-16T01:03:03.237Z,949.9
2023-10-16T01:04:05.489Z,949.9
2023-10-16T01:05:07.358Z,949.9
2023-10-16T01:06:09.148Z,949.9
2023-10-16T01:07:10.972Z,950
2023-10-16T01:08:12.957Z,950
2023-10-16T01:09:14.762Z,950
2023-10-16T01:10:16.645Z,949.9
2023-10-16T01:11:18.344Z,950
2023-10-16T01:12:20.247Z,949.9
2023-10-16T01:13:22.123Z,950
2023-10-16T01:14:23.946Z,950
2023-10-16T01:15:26.336Z,950.1
2023-10-16T01:16:28.150Z,950.2
2023-10-16T01:17:30.033Z,950
2023-10-16T01:18:31.994Z,950
2023-10-16T01:19:33.880Z,950
2023-10-16T01:20:35.579Z,950
2023-10-16T01:21:37.592Z,950
2023-10-16T01:22:39.531Z,950
2023-10-16T01:23:41.243Z,950
2023-10-16T01:24:43.102Z,950
2023-10-16T01:25:45.087Z,950
2023-10-16T01:26:46.782Z,949.9
2023-10-16T01:27:48.865Z,950
2023-10-16T01:28:50.706Z,950
2023-10-16T01:29:52.436Z,950
2023-10-16T01:30:54.633Z,950
2023-10-16T01:31:56.692Z,950
2023-10-16T01:32:58.620Z,950
2023-10-16T01:34:00.608Z,950
2023-10-16T01:35:02.435Z,950.1
2023-10-16T01:36:04.153Z,950.2
2023-10-16T01:37:05.885Z,950.1
2023-10-16T01:38:07.616Z,950
2023-10-16T01:39:09.328Z,950.1
2023-10-16T01:40:11.050Z,950.1
2023-10-16T01:41:12.807Z,950.2
2023-10-16T01:42:14.739Z,950.3
2023-10-16T01:43:16.652Z,950.3
2023-10-16T01:44:18.422Z,950.4
2023-10-16T01:45:20.423Z,950.4
2023-10-16T01:46:23.150Z,950.5
2023-10-16T01:47:25.346Z,950.5
2023-10-16T01:48:27.293Z,950.7
2023-10-16T01:49:29.143Z,950.7
2023-10-16T01:50:30.853Z,950.7
2023-10-16T01:51:32.951Z,950.7
2023-10-16T01:52:35.199Z,950.6
2023-10-16T01:53:37.004Z,950.7
2023-10-16T01:54:38.871Z,950.7
2023-10-16T01:55:40.616Z,950.7
2023-10-16T01:56:42.365Z,950.6
2023-10-16T01:57:44.566Z,950.7
2023-10-16T01:58:46.517Z,950.7
2023-10-16T01:59:48.247Z,950.8
2023-10-16T02:00:50.560Z,950.8
2023-10-16T02:01:52.517Z,950.8
2023-10-16T02:02:54.802Z,950.8
2023-10-16T02:03:57.282Z,950.8
2023-10-16T02:04:59.094Z,950.9
2023-10-16T02:06:00.760Z,950.9
2023-10-16T02:07:05.093Z,950.9
2023-10-16T02:08:06.782Z,950.9
2023-10-16T02:09:08.478Z,950.9
2023-10-16T02:10:10.192Z,950.9
2023-10-16T02:11:11.878Z,950.9
2023-10-16T02:12:13.896Z,951
2023-10-16T02:13:15.604Z,950.9
2023-10-16T02:14:17.316Z,950.9
2023-10-16T02:15:19.212Z,950.9
2023-10-16T02:16:21.241Z,950.9
2023-10-16T02:17:23.468Z,950.8
2023-10-16T02:18:25.420Z,950.8
2023-10-16T02:19:27.324Z,950.7
2023-10-16T02:20:29.016Z,950.9
2023-10-16T02:21:30.777Z,950.8
2023-10-16T02:22:32.727Z,950.8
2023-10-16T02:23:34.408Z,950.9
2023-10-16T02:24:36.187Z,951
2023-10-16T02:25:38.254Z,951
2023-10-16T02:26:39.965Z,951
2023-10-16T02:27:41.922Z,951
2023-10-16T02:28:43.807Z,951.1
2023-10-16T02:29:45.500Z,951
2023-10-16T02:30:47.553Z,951
2023-10-16T02:31:49.416Z,951
2023-10-16T02:32:51.328Z,950.9
2023-10-16T02:33:53.396Z,950.9
2023-10-16T02:34:55.274Z,950.9
2023-10-16T02:35:56.990Z,951
2023-10-16T02:36:58.943Z,951
2023-10-16T02:38:00.726Z,951
2023-10-16T02:39:02.427Z,951
2023-10-16T02:40:04.129Z,951
2023-10-16T02:41:05.927Z,951.1
2023-10-16T02:42:07.659Z,951
2023-10-16T02:43:09.390Z,951.1
2023-10-16T02:44:11.268Z,951.1
2023-10-16T02:45:13.067Z,951.1
2023-10-16T02:46:14.974Z,951.1
2023-10-16T02:47:16.901Z,951.1
2023-10-16T02:48:18.704Z,951.1
2023-10-16T02:49:20.450Z,951.1
2023-10-16T02:50:22.250Z,951.2
2023-10-16T02:51:24.063Z,951.2
2023-10-16T02:52:25.820Z,951.2
2023-10-16T02:53:27.571Z,951.2
2023-10-16T02:54:29.335Z,951.2
2023-10-16T02:55:31.044Z,951.2
2023-10-16T02:56:32.829Z,951.2
2023-10-16T02:57:34.746Z,951.2
2023-10-16T02:58:36.635Z,951.2
2023-10-16T02:59:38.372Z,951.2
2023-10-16T03:00:40.512Z,951.2
2023-10-16T03:01:42.674Z,951.2
2023-10-16T03:02:47.964Z,951.2
2023-10-16T03:03:50.033Z,951.2
2023-10-16T03:04:51.934Z,951.3
2023-10-16T03:05:53.718Z,951.3
2023-10-16T03:06:55.620Z,951.3
2023-10-16T03:07:57.857Z,951.3
2023-10-16T03:08:59.580Z,951.3
2023-10-16T03:10:01.320Z,951.2
2023-10-16T03:11:03.033Z,951.3
2023-10-16T03:12:05.277Z,951.4
2023-10-16T03:13:07.675Z,951.4
2023-10-16T03:14:09.464Z,951.4
2023-10-16T03:15:11.171Z,951.4
2023-10-16T03:16:12.882Z,951.4
2023-10-16T03:17:14.611Z,951.4
2023-10-16T03:18:16.335Z,951.4
2023-10-16T03:19:18.223Z,951.4
2023-10-16T03:20:19.925Z,951.4
2023-10-16T03:21:21.809Z,951.4
2023-10-16T03:22:23.548Z,951.5
2023-10-16T03:23:25.229Z,951.6
2023-10-16T03:24:27.969Z,951.6
2023-10-16T03:25:30.352Z,951.6
2023-10-16T03:26:32.033Z,951.6
2023-10-16T03:27:33.845Z,951.6
2023-10-16T03:28:35.680Z,951.6
2023-10-16T03:29:37.421Z,951.7
2023-10-16T03:30:39.485Z,951.7
2023-10-16T03:31:42.098Z,951.7
2023-10-16T03:32:44.324Z,951.7
2023-10-16T03:33:46.766Z,951.7
2023-10-16T03:34:48.718Z,951.8
2023-10-16T03:35:50.404Z,951.8
2023-10-16T03:36:52.286Z,951.8
2023-10-16T03:37:54.183Z,951.8
2023-10-16T03:38:55.904Z,951.8
2023-10-16T03:39:58.239Z,951.6
2023-10-16T03:40:59.991Z,951.6
2023-10-16T03:42:01.910Z,951.7
2023-10-16T03:43:03.645Z,951.6
2023-10-16T03:44:05.420Z,951.6
2023-10-16T03:45:07.261Z,951.6
2023-10-16T03:46:09.208Z,951.7
2023-10-16T03:47:11.026Z,951.8
2023-10-16T03:48:12.792Z,951.7
2023-10-16T03:49:14.568Z,951.7
2023-10-16T03:50:16.270Z,951.8
2023-10-16T03:51:18.279Z,951.8
2023-10-16T03:52:19.996Z,951.8
2023-10-16T03:53:21.686Z,951.8
2023-10-16T03:54:23.664Z,951.8
2023-10-16T03:55:26.482Z,951.8
2023-10-16T03:56:28.616Z,951.8
2023-10-16T03:57:30.319Z,951.9
2023-10-16T03:58:32.059Z,951.9
2023-10-16T03:59:33.757Z,951.9
2023-10-16T04:00:35.658Z,951.9
2023-10-16T04:01:37.839Z,951.9
2023-10-16T04:02:39.759Z,951.9
2023-10-16T04:03:44.832Z,951.9
2023-10-16T04:04:46.953Z,951.9
2023-10-16T04:05:48.810Z,951.9
2023-10-16T04:06:50.753Z,951.8
2023-10-16T04:07:52.590Z,951.9
2023-10-16T04:08:54.388Z,951.8
2023-10-16T04:09:56.188Z,951.8
2023-10-16T04:10:58.076Z,951.9
2023-10-16T04:11:59.765Z,951.8
2023-10-16T04:13:01.553Z,951.9
2023-10-16T04:14:03.467Z,951.9
2023-10-16T04:15:05.255Z,952
2023-10-16T04:16:07.741Z,952.1
2023-10-16T04:17:09.653Z,952.1
2023-10-16T04:18:11.347Z,952.3
2023-10-16T04:19:13.041Z,952.3
2023-10-16T04:20:14.788Z,952.3
2023-10-16T04:21:16.523Z,952.3
2023-10-16T04:22:18.490Z,952.3
2023-10-16T04:23:20.160Z,952.2
2023-10-16T04:24:21.946Z,952.2
2023-10-16T04:25:23.701Z,952.2
2023-10-16T04:26:25.432Z,952.2
2023-10-16T04:27:27.240Z,952.2
2023-10-16T04:28:29.030Z,952.2
2023-10-16T04:29:30.698Z,952.2
2023-10-16T04:30:32.552Z,952.3
2023-10-16T04:31:34.577Z,952.3
2023-10-16T04:32:36.513Z,952.4
2023-10-16T04:33:38.439Z,952.5
2023-10-16T04:34:43.207Z,952.4
2023-10-16T04:35:45.076Z,952.5
2023-10-16T04:36:46.967Z,952.5
2023-10-16T04:37:48.710Z,952.5
2023-10-16T04:38:50.398Z,952.5
2023-10-16T04:39:52.243Z,952.5
2023-10-16T04:40:54.011Z,952.5
2023-10-16T04:41:55.695Z,952.5
2023-10-16T04:42:57.577Z,952.5
2023-10-16T04:43:59.527Z,952.5
2023-10-16T04:45:01.362Z,952.5
2023-10-16T04:46:03.374Z,952.6
2023-10-16T04:47:05.474Z,952.6
2023-10-16T04:48:07.686Z,952.6
2023-10-16T04:49:09.678Z,952.6
2023-10-16T04:50:11.452Z,952.7
2023-10-16T04:51:52.564Z,952.6
2023-10-16T04:52:55.306Z,952.6
2023-10-16T04:53:56.999Z,952.7
2023-10-16T04:54:58.860Z,952.7
2023-10-16T04:56:01.059Z,952.7
2023-10-16T04:57:02.753Z,952.7
2023-10-16T04:58:04.438Z,952.8
2023-10-16T04:59:06.130Z,952.9
2023-10-16T05:00:07.841Z,952.9
2023-10-16T05:01:09.735Z,952.9
2023-10-16T05:02:11.523Z,952.9
2023-10-16T05:03:13.724Z,952.8
2023-10-16T05:04:16.281Z,952.9
2023-10-16T05:05:18.442Z,952.9
2023-10-16T05:06:20.477Z,952.9
2023-10-16T05:07:22.638Z,953
2023-10-16T05:08:24.646Z,953.1
2023-10-16T05:09:26.518Z,953.1
2023-10-16T05:10:28.295Z,953.2
2023-10-16T05:11:29.982Z,953.2
2023-10-16T05:12:31.737Z,953.4
2023-10-16T05:13:33.440Z,953.3
2023-10-16T05:14:35.168Z,953.4
2023-10-16T05:15:37.108Z,953.4
2023-10-16T05:16:38.970Z,953.5
2023-10-16T05:17:41.159Z,953.4
2023-10-16T05:18:43.307Z,953.5
2023-10-16T05:19:45.234Z,953.5
2023-10-16T05:20:47.421Z,953.4
2023-10-16T05:21:49.213Z,953.3
2023-10-16T05:22:50.930Z,953.3
2023-10-16T05:23:52.628Z,953.3
2023-10-16T05:24:54.547Z,953.3
2023-10-16T05:25:56.447Z,953.3
2023-10-16T05:26:58.132Z,953.3
2023-10-16T05:28:00.167Z,953.3
2023-10-16T05:29:02.060Z,953.3
2023-10-16T05:30:03.777Z,953.4
2023-10-16T05:31:05.754Z,953.4
2023-10-16T05:32:07.740Z,953.5
2023-10-16T05:33:09.489Z,953.5
2023-10-16T05:34:11.195Z,953.5
2023-10-16T05:35:12.883Z,953.6
2023-10-16T05:36:14.711Z,953.6
2023-10-16T05:37:16.422Z,953.7
2023-10-16T05:38:18.128Z,953.7
2023-10-16T05:39:19.854Z,953.8
2023-10-16T05:40:21.543Z,953.8
2023-10-16T05:41:23.292Z,953.7
2023-10-16T05:42:25.187Z,953.8
2023-10-16T05:43:26.994Z,953.7
2023-10-16T05:44:29.295Z,953.7
2023-10-16T05:45:31.051Z,953.7
2023-10-16T05:46:33.165Z,953.7
2023-10-16T05:47:35.192Z,953.7
2023-10-16T05:48:37.547Z,953.7
2023-10-16T05:49:39.388Z,953.8
2023-10-16T05:50:41.104Z,953.9
2023-10-16T05:51:42.887Z,953.9
2023-10-16T05:52:44.718Z,953.9
2023-10-16T05:53:46.495Z,953.9
2023-10-16T05:54:48.401Z,954
2023-10-16T05:55:50.283Z,954
2023-10-16T05:56:52.002Z,954
2023-10-16T05:57:53.912Z,954.1
2023-10-16T05:58:55.709Z,954.1
2023-10-16T05:59:57.406Z,954.1
2023-10-16T06:00:59.438Z,954.1
2023-10-16T06:02:01.788Z,954.2
2023-10-16T06:03:04.014Z,954.3
2023-10-16T06:04:06.614Z,954.3
2023-10-16T06:05:09.639Z,954.3
2023-10-16T06:06:12.080Z,954.3
2023-10-16T06:07:13.778Z,954.2
2023-10-16T06:08:15.522Z,954.3
2023-10-16T06:09:17.238Z,954.3
2023-10-16T06:10:18.922Z,954.3
2023-10-16T06:11:20.753Z,954.3
2023-10-16T06:12:23.030Z,954.3
2023-10-16T06:13:24.905Z,954.3
2023-10-16T06:14:27.449Z,954.3
2023-10-16T06:15:29.692Z,954.3
2023-10-16T06:16:31.816Z,954.3
2023-10-16T06:17:33.903Z,954.3
2023-10-16T06:18:36.008Z,954.3
2023-10-16T06:19:37.870Z,954.3
2023-10-16T06:20:39.545Z,954.4
2023-10-16T06:21:41.346Z,954.4
2023-10-16T06:22:43.222Z,954.4
2023-10-16T06:23:44.984Z,954.4
2023-10-16T06:24:47.400Z,954.5
2023-10-16T06:25:49.261Z,954.4
2023-10-16T06:26:50.996Z,954.4
2023-10-16T06:27:52.792Z,954.5
2023-10-16T06:28:54.746Z,954.5
2023-10-16T06:29:56.447Z,954.4
2023-10-16T06:30:58.521Z,954.5
2023-10-16T06:32:00.435Z,954.5
2023-10-16T06:33:02.292Z,954.5
2023-10-16T06:34:04.272Z,954.5
2023-10-16T06:35:06.208Z,954.5
2023-10-16T06:36:07.924Z,954.4
2023-10-16T06:37:09.642Z,954.5
2023-10-16T06:38:11.340Z,954.5
2023-10-16T06:39:13.078Z,954.5
2023-10-16T06:40:14.821Z,954.5
2023-10-16T06:41:16.527Z,954.5
2023-10-16T06:42:18.218Z,954.5
2023-10-16T06:43:19.945Z,954.5
2023-10-16T06:44:21.650Z,954.5
2023-10-16T06:45:24.421Z,954.5
2023-10-16T06:46:27.164Z,954.6
2023-10-16T06:47:29.116Z,954.6
2023-10-16T06:48:31.167Z,954.6
2023-10-16T06:49:33.373Z,954.6
2023-10-16T06:50:35.154Z,954.5
2023-10-16T06:51:41.446Z,954.5
2023-10-16T06:52:43.200Z,954.6
2023-10-16T06:53:44.916Z,954.6
2023-10-16T06:54:46.788Z,954.6
2023-10-16T06:55:48.705Z,954.6
2023-10-16T06:56:50.470Z,954.7
2023-10-16T06:57:52.711Z,954.7
2023-10-16T06:58:54.593Z,954.6
2023-10-16T06:59:56.304Z,954.6
2023-10-16T07:00:58.452Z,954.6
2023-10-16T07:02:00.654Z,954.6
2023-10-16T07:03:02.824Z,954.6
2023-10-16T07:04:05.036Z,954.6
2023-10-16T07:05:07.188Z,954.7
2023-10-16T07:06:09.112Z,954.7
2023-10-16T07:07:10.821Z,954.7
2023-10-16T07:08:12.585Z,954.7
2023-10-16T07:09:14.664Z,954.7
2023-10-16T07:10:16.647Z,954.8
2023-10-16T07:11:18.581Z,954.8
2023-10-16T07:12:20.577Z,954.8
2023-10-16T07:13:22.341Z,954.8
2023-10-16T07:14:24.242Z,954.8
2023-10-16T07:15:26.561Z,954.8
2023-10-16T07:16:28.528Z,954.8
2023-10-16T07:17:30.674Z,954.7
2023-10-16T07:18:32.630Z,954.7
2023-10-16T07:19:34.717Z,954.8
2023-10-16T07:20:36.443Z,954.8
2023-10-16T07:21:38.381Z,954.8
2023-10-16T07:22:40.240Z,954.8
2023-10-16T07:23:44.493Z,954.8
2023-10-16T07:24:46.278Z,954.7
2023-10-16T07:25:48.212Z,954.8
2023-10-16T07:26:49.960Z,954.8
2023-10-16T07:27:51.817Z,954.7
2023-10-16T07:28:53.568Z,954.8
2023-10-16T07:29:55.232Z,954.7
2023-10-16T07:30:57.291Z,954.7
2023-10-16T07:31:59.640Z,954.7
2023-10-16T07:33:01.626Z,954.8
2023-10-16T07:34:03.668Z,954.8
2023-10-16T07:35:05.512Z,954.8
2023-10-16T07:36:07.260Z,954.8
2023-10-16T07:37:09.084Z,954.8
2023-10-16T07:38:10.778Z,954.8
2023-10-16T07:39:12.637Z,954.8
2023-10-16T07:40:14.372Z,954.8
2023-10-16T07:41:16.101Z,954.9
2023-10-16T07:42:17.867Z,954.8
2023-10-16T07:43:19.575Z,954.8
2023-10-16T07:44:21.304Z,954.8
2023-10-16T07:45:23.362Z,954.8
2023-10-16T07:46:25.166Z,954.9
2023-10-16T07:47:27.187Z,954.8
2023-10-16T07:48:29.040Z,954.8
2023-10-16T07:49:31.097Z,954.7
2023-10-16T07:50:32.864Z,954.8
2023-10-16T07:51:34.673Z,954.8
2023-10-16T07:52:36.681Z,954.8
2023-10-16T07:53:38.408Z,954.8
2023-10-16T07:54:40.196Z,954.8
2023-10-16T07:55:42.001Z,954.8
2023-10-16T07:56:43.896Z,954.8
2023-10-16T07:57:45.785Z,954.8
2023-10-16T07:58:47.551Z,954.8
2023-10-16T07:59:49.327Z,954.7
2023-10-16T08:00:51.459Z,954.7
2023-10-16T08:01:54.131Z,954.7
2023-10-16T08:02:56.274Z,954.7
2023-10-16T08:03:58.426Z,954.6
2023-10-16T08:05:00.497Z,954.7
2023-10-16T08:06:02.268Z,954.7
2023-10-16T08:07:04.131Z,954.7
2023-10-16T08:08:06.200Z,954.7
2023-10-16T08:09:14.012Z,954.7
2023-10-16T08:10:15.871Z,954.7
2023-10-16T08:11:17.645Z,954.7
2023-10-16T08:12:19.493Z,954.7
2023-10-16T08:13:21.505Z,954.7
2023-10-16T08:14:23.288Z,954.6
2023-10-16T08:15:24.991Z,954.7
2023-10-16T08:16:28.856Z,954.7
2023-10-16T08:17:31.422Z,954.7
2023-10-16T08:18:33.937Z,954.7
2023-10-16T08:19:36.556Z,954.7
2023-10-16T08:20:38.249Z,954.7
2023-10-16T08:21:40.251Z,954.7
2023-10-16T08:22:42.491Z,954.7
2023-10-16T08:23:44.256Z,954.7
2023-10-16T08:24:46.129Z,954.7
2023-10-16T08:25:47.879Z,954.7
2023-10-16T08:26:49.610Z,954.7
2023-10-16T08:27:51.761Z,954.7
2023-10-16T08:28:53.619Z,954.7
2023-10-16T08:29:55.357Z,954.7
2023-10-16T08:30:57.549Z,954.7
2023-10-16T08:31:59.755Z,954.7
2023-10-16T08:33:01.905Z,954.7
2023-10-16T08:34:04.160Z,954.8
2023-10-16T08:35:07.295Z,954.8
2023-10-16T08:36:09.790Z,954.8
2023-10-16T08:37:11.782Z,954.8
2023-10-16T08:38:13.511Z,954.8
2023-10-16T08:39:15.370Z,954.8
2023-10-16T08:40:17.135Z,954.8
2023-10-16T08:41:18.940Z,954.8
2023-10-16T08:42:20.688Z,954.8
2023-10-16T08:43:22.419Z,954.8
2023-10-16T08:44:24.183Z,954.8
2023-10-16T08:45:26.440Z,954.8
2023-10-16T08:46:28.576Z,954.8
2023-10-16T08:47:30.423Z,954.7
2023-10-16T08:48:32.260Z,954.7
2023-10-16T08:49:59.360Z,954.7
2023-10-16T08:51:01.493Z,954.7
2023-10-16T08:52:03.405Z,954.7
2023-10-16T08:53:05.281Z,954.7
2023-10-16T08:54:07.125Z,954.7
2023-10-16T08:55:09.088Z,954.7
2023-10-16T08:56:11.640Z,954.7
2023-10-16T08:57:13.987Z,954.7
2023-10-16T08:58:15.791Z,954.7
2023-10-16T08:59:17.498Z,954.7
2023-10-16T09:00:19.364Z,954.7
2023-10-16T09:01:21.913Z,954.7
2023-10-16T09:02:24.299Z,954.8
2023-10-16T09:03:26.485Z,954.8
2023-10-16T09:04:28.686Z,954.7
2023-10-16T09:05:30.671Z,954.8
2023-10-16T09:06:32.606Z,954.8
2023-10-16T09:07:34.327Z,954.8
2023-10-16T09:08:36.121Z,954.8
2023-10-16T09:09:37.945Z,954.8
2023-10-16T09:10:40.141Z,954.8
2023-10-16T09:11:42.842Z,954.8
2023-10-16T09:12:44.860Z,954.7
2023-10-16T09:13:46.765Z,954.8
2023-10-16T09:14:49.563Z,954.8
2023-10-16T09:15:53.106Z,954.8
2023-10-16T09:16:55.138Z,954.7
2023-10-16T09:17:57.239Z,954.7
2023-10-16T09:18:59.327Z,954.7
2023-10-16T09:20:06.787Z,954.7
2023-10-16T09:21:08.535Z,954.7
2023-10-16T09:22:10.611Z,954.7
2023-10-16T09:23:12.344Z,954.7
2023-10-16T09:24:14.046Z,954.7
2023-10-16T09:25:38.664Z,954.7
2023-10-16T09:26:40.808Z,954.8
2023-10-16T09:27:42.608Z,954.7
2023-10-16T09:28:44.409Z,954.7
2023-10-16T09:29:46.430Z,954.7
2023-10-16T09:31:13.072Z,954.7
2023-10-16T09:32:15.722Z,954.7
2023-10-16T09:33:17.874Z,954.7
2023-10-16T09:34:20.997Z,954.7
2023-10-16T09:35:22.735Z,954.7
2023-10-16T09:36:24.469Z,954.7
2023-10-16T09:37:26.325Z,954.7
2023-10-16T09:38:28.029Z,954.6
2023-10-16T09:39:29.927Z,954.7
2023-10-16T09:40:41.319Z,954.7
2023-10-16T09:41:43.963Z,954.6
2023-10-16T09:42:45.810Z,954.6
2023-10-16T09:43:47.720Z,954.5
2023-10-16T09:44:49.568Z,954.6
2023-10-16T09:45:51.408Z,954.6
2023-10-16T09:46:53.389Z,954.5
2023-10-16T09:47:55.465Z,954.5
2023-10-16T09:48:57.303Z,954.5
2023-10-16T09:49:59.332Z,954.5
2023-10-16T09:51:01.611Z,954.4
2023-10-16T09:52:08.820Z,954.4
2023-10-16T09:53:10.856Z,954.3
2023-10-16T09:54:12.776Z,954.4
2023-10-16T09:55:14.827Z,954.4
2023-10-16T09:56:16.594Z,954.4
2023-10-16T09:57:20.627Z,954.4
2023-10-16T09:58:22.336Z,954.4
2023-10-16T09:59:24.087Z,954.4
2023-10-16T10:00:26.075Z,954.4
2023-10-16T10:01:28.084Z,954.4
2023-10-16T10:02:30.139Z,954.4
2023-10-16T10:03:32.687Z,954.3
2023-10-16T10:04:35.107Z,954.3
2023-10-16T10:05:37.000Z,954.4
2023-10-16T10:06:38.726Z,954.4
2023-10-16T10:07:40.422Z,954.3
2023-10-16T10:08:42.107Z,954.3
2023-10-16T10:09:43.851Z,954.3
2023-10-16T10:10:45.774Z,954.3
2023-10-16T10:11:47.512Z,954.3
2023-10-16T10:12:49.799Z,954.3
2023-10-16T10:13:51.675Z,954.3
2023-10-16T10:14:53.370Z,954.2
2023-10-16T10:15:55.310Z,954.2
2023-10-16T10:16:57.687Z,954.2
2023-10-16T10:18:00.198Z,954.2
2023-10-16T10:19:02.189Z,954.2
2023-10-16T10:20:04.366Z,954.2
2023-10-16T10:21:06.058Z,954.2
2023-10-16T10:22:08.193Z,954.2
2023-10-16T10:23:10.108Z,954.1
2023-10-16T10:24:11.849Z,954.1
2023-10-16T10:25:21.167Z,954.1
2023-10-16T10:26:22.984Z,954.1
2023-10-16T10:27:24.675Z,954.1
2023-10-16T10:28:26.954Z,954.1
2023-10-16T10:29:28.690Z,954.1
2023-10-16T10:30:30.632Z,954.1
2023-10-16T10:31:32.475Z,954.1
2023-10-16T10:32:34.464Z,954.1
2023-10-16T10:33:36.397Z,954.1
2023-10-16T10:34:38.178Z,954
2023-10-16T10:35:40.063Z,954
2023-10-16T10:36:42.029Z,953.9
2023-10-16T10:37:43.843Z,953.9
2023-10-16T10:38:45.586Z,953.9
2023-10-16T10:39:47.578Z,953.9
2023-10-16T10:40:49.462Z,953.9
2023-10-16T10:41:51.232Z,954
2023-10-16T10:42:59.306Z,953.9
2023-10-16T10:44:01.628Z,953.9
2023-10-16T10:45:03.371Z,953.9
2023-10-16T10:46:05.625Z,953.9
2023-10-16T10:47:07.881Z,953.8
2023-10-16T10:48:10.103Z,953.8
2023-10-16T10:49:12.557Z,953.8
2023-10-16T10:50:14.406Z,953.8
2023-10-16T10:51:16.288Z,953.8
2023-10-16T10:52:18.032Z,953.8
2023-10-16T10:53:22.537Z,953.7
2023-10-16T10:54:24.290Z,953.8
2023-10-16T10:55:26.430Z,953.8
2023-10-16T10:56:28.181Z,953.8
2023-10-16T10:57:29.940Z,953.8
2023-10-16T10:58:31.895Z,953.7
2023-10-16T10:59:33.903Z,953.7
2023-10-16T11:00:35.790Z,953.7
2023-10-16T11:01:37.751Z,953.7
2023-10-16T11:02:39.730Z,953.7
2023-10-16T11:03:42.050Z,953.8
2023-10-16T11:04:44.764Z,953.7
2023-10-16T11:05:46.796Z,953.8
2023-10-16T11:06:48.725Z,953.7
2023-10-16T11:07:51.264Z,953.7
2023-10-16T11:08:53.278Z,953.8
2023-10-16T11:09:55.044Z,953.7
2023-10-16T11:10:56.974Z,953.7
2023-10-16T11:11:58.706Z,953.7
2023-10-16T11:13:00.684Z,953.7
2023-10-16T11:14:02.427Z,953.7
2023-10-16T11:15:04.423Z,953.7
2023-10-16T11:16:06.555Z,953.7
2023-10-16T11:17:08.411Z,953.7
2023-10-16T11:18:10.507Z,953.7
2023-10-16T11:19:12.744Z,953.7
2023-10-16T11:20:14.798Z,953.7
2023-10-16T11:21:16.583Z,953.7
2023-10-16T11:22:18.292Z,953.7
2023-10-16T11:23:20.002Z,953.6
2023-10-16T11:24:21.808Z,953.6
2023-10-16T11:25:23.527Z,953.6
2023-10-16T11:26:25.278Z,953.6
2023-10-16T11:27:27.028Z,953.6
2023-10-16T11:28:28.726Z,953.6
2023-10-16T11:29:30.418Z,953.6
2023-10-16T11:30:32.369Z,953.6
2023-10-16T11:31:34.654Z,953.6
2023-10-16T11:32:36.827Z,953.6
2023-10-16T11:33:38.587Z,953.5
2023-10-16T11:34:40.561Z,953.5
2023-10-16T11:35:42.441Z,953.5
2023-10-16T11:36:50.519Z,953.5
2023-10-16T11:37:53.946Z,953.5
2023-10-16T11:38:55.684Z,953.5
2023-10-16T11:39:57.780Z,953.5
2023-10-16T11:40:59.739Z,953.5
2023-10-16T11:42:01.533Z,953.5
2023-10-16T11:43:03.320Z,953.6
2023-10-16T11:44:05.295Z,953.5
2023-10-16T11:45:07.022Z,953.5
2023-10-16T11:46:09.292Z,953.5
2023-10-16T11:47:11.514Z,953.5
2023-10-16T11:48:13.466Z,953.5
2023-10-16T11:49:15.414Z,953.5
2023-10-16T11:50:17.557Z,953.5
2023-10-16T11:51:19.509Z,953.5
2023-10-16T11:52:21.933Z,953.5
2023-10-16T11:53:23.686Z,953.5
2023-10-16T11:54:25.941Z,953.5
2023-10-16T11:55:27.633Z,953.5
2023-10-16T11:56:29.394Z,953.5
2023-10-16T11:57:31.212Z,953.5
2023-10-16T11:58:33.269Z,953.5
2023-10-16T11:59:35.131Z,953.5
2023-10-16T12:00:37.444Z,953.4
2023-10-16T12:02:04.939Z,953.4
2023-10-16T12:03:07.246Z,953.4
2023-10-16T12:04:09.754Z,953.4
2023-10-16T12:05:12.764Z,953.4
2023-10-16T12:06:15.230Z,953.4
2023-10-16T12:07:17.367Z,953.4
2023-10-16T12:08:19.173Z,953.4
2023-10-16T12:09:21.030Z,953.3
2023-10-16T12:10:23.021Z,953.3
2023-10-16T12:11:25.150Z,953.3
2023-10-16T12:12:27.084Z,953.3
2023-10-16T12:13:28.790Z,953.3
2023-10-16T12:14:31.238Z,953.3
2023-10-16T12:15:33.391Z,953.3
2023-10-16T12:16:45.208Z,953.3
2023-10-16T12:17:48.002Z,953.3
2023-10-16T12:18:50.048Z,953.3
2023-10-16T12:19:52.038Z,953.3
2023-10-16T12:20:53.815Z,953.4
2023-10-16T12:21:55.984Z,953.3
2023-10-16T12:22:58.017Z,953.3
2023-10-16T12:23:59.745Z,953.3
2023-10-16T12:25:01.581Z,953.3
2023-10-16T12:26:03.359Z,953.3
2023-10-16T12:27:05.140Z,953.2
2023-10-16T12:28:06.979Z,953.3
2023-10-16T12:29:08.812Z,953.2
2023-10-16T12:30:10.535Z,953.3
2023-10-16T12:31:12.293Z,953.3
2023-10-16T12:32:15.138Z,953.3
2023-10-16T12:33:17.211Z,953.2
2023-10-16T12:34:22.817Z,953.2
2023-10-16T12:35:25.633Z,953.3
2023-10-16T12:36:27.338Z,953.3
2023-10-16T12:37:29.369Z,953.2
2023-10-16T12:38:31.280Z,953.2
2023-10-16T12:39:33.049Z,953.2
2023-10-16T12:40:34.840Z,953.2
2023-10-16T12:41:36.626Z,953.2
2023-10-16T12:42:38.520Z,953.2
2023-10-16T12:43:40.369Z,953.2
2023-10-16T12:44:42.632Z,953.1
2023-10-16T12:45:44.754Z,953.1
2023-10-16T12:46:46.581Z,953.1
2023-10-16T12:47:53.516Z,953.1
2023-10-16T12:49:00.848Z,953
2023-10-16T12:50:02.677Z,953
2023-10-16T12:51:12.861Z,953
2023-10-16T12:52:14.984Z,953
2023-10-16T12:53:17.036Z,953
2023-10-16T12:54:25.976Z,953.1
2023-10-16T12:55:28.756Z,953
2023-10-16T12:56:30.510Z,953
2023-10-16T12:57:32.209Z,953
2023-10-16T12:58:33.967Z,952.9
2023-10-16T12:59:35.722Z,953
2023-10-16T13:00:37.499Z,953
2023-10-16T13:01:39.306Z,953
2023-10-16T13:02:41.124Z,953
2023-10-16T13:03:43.393Z,953
2023-10-16T13:04:45.858Z,953
2023-10-16T13:05:47.626Z,953
2023-10-16T13:06:49.545Z,953
2023-10-16T13:07:58.893Z,953
2023-10-16T13:09:01.060Z,953
2023-10-16T13:10:02.969Z,953
2023-10-16T13:11:05.118Z,953
2023-10-16T13:12:06.817Z,953
2023-10-16T13:13:08.716Z,953
2023-10-16T13:14:10.471Z,953.1
2023-10-16T13:15:12.203Z,953.1
2023-10-16T13:16:16.432Z,953.1
2023-10-16T13:17:18.876Z,953.1
2023-10-16T13:18:20.609Z,953.1
2023-10-16T13:19:22.331Z,953.1
2023-10-16T13:20:24.394Z,953.1
2023-10-16T13:21:26.180Z,953.1
2023-10-16T13:22:27.921Z,953.1
2023-10-16T13:23:47.904Z,953.1
2023-10-16T13:24:50.187Z,953.1
2023-10-16T13:25:52.070Z,953.1
2023-10-16T13:26:54.257Z,953.1
2023-10-16T13:27:56.128Z,953.1